createdAt,value
2018-08-22T00:02:02.153Z,63.50
2018-08-22T00:04:29.418Z,63.50
2018-08-22T00:06:56.662Z,63.50
2018-08-22T00:10:27.574Z,63.80
2018-08-22T00:12:54.827Z,64.50
2018-08-22T00:15:22.088Z,63.90
2018-08-22T00:17:49.333Z,64.20
2018-08-22T00:20:16.630Z,64.30
2018-08-22T00:22:43.854Z,64.30
2018-08-22T00:25:11.136Z,64.40
2018-08-22T00:27:38.434Z,64.50
2018-08-22T00:30:05.906Z,64.60
2018-08-22T00:32:33.102Z,64.80
2018-08-22T00:35:00.362Z,64.70
2018-08-22T00:37:27.529Z,65.10
2018-08-22T00:39:54.822Z,65.60
2018-08-22T00:42:22.127Z,65.80
2018-08-22T00:44:49.345Z,65.90
2018-08-22T00:47:16.630Z,66.00
2018-08-22T00:49:43.870Z,66.30
2018-08-22T00:52:11.258Z,66.30
2018-08-22T00:54:38.537Z,66.40
2018-08-22T00:57:05.982Z,66.60
2018-08-22T00:59:33.288Z,66.50
2018-08-22T01:02:00.611Z,66.50
2018-08-22T01:04:27.885Z,66.80
2018-08-22T01:06:55.128Z,66.80
2018-08-22T01:09:22.650Z,66.80
2018-08-22T01:11:49.869Z,66.60
2018-08-22T01:14:17.145Z,66.40
2018-08-22T01:16:44.505Z,66.20
2018-08-22T01:19:11.831Z,66.10
2018-08-22T01:21:39.074Z,66.20
2018-08-22T01:24:06.335Z,66.10
2018-08-22T01:26:33.870Z,66.10
2018-08-22T01:29:01.230Z,66.20
2018-08-22T01:31:28.617Z,66.20
2018-08-22T01:33:55.900Z,66.10
2018-08-22T01:36:23.157Z,66.10
2018-08-22T01:38:50.410Z,66.40
2018-08-22T01:41:17.654Z,66.20
2018-08-22T01:43:44.973Z,66.50
2018-08-22T01:46:12.210Z,66.60
2018-08-22T01:48:39.669Z,66.80
2018-08-22T01:51:06.993Z,66.70
2018-08-22T01:53:34.186Z,66.70
2018-08-22T01:56:01.474Z,67.10
2018-08-22T01:58:28.753Z,67.00
2018-08-22T02:00:55.994Z,67.10
2018-08-22T02:03:23.224Z,67.20
2018-08-22T02:05:50.447Z,67.30
2018-08-22T02:08:17.681Z,67.20
2018-08-22T02:10:44.942Z,67.10
2018-08-22T02:13:12.330Z,67.00
2018-08-22T02:15:39.610Z,67.50
2018-08-22T02:18:06.842Z,66.80
2018-08-22T02:20:34.122Z,66.70
2018-08-22T02:23:01.386Z,66.50
2018-08-22T02:25:28.635Z,66.50
2018-08-22T02:27:55.943Z,66.70
2018-08-22T02:30:23.166Z,66.80
2018-08-22T02:32:50.470Z,66.60
2018-08-22T02:35:17.731Z,66.90
2018-08-22T02:37:45.002Z,67.00
2018-08-22T02:40:12.272Z,67.00
2018-08-22T02:42:39.527Z,67.30
2018-08-22T02:45:06.787Z,67.40
2018-08-22T02:47:34.057Z,67.60
2018-08-22T02:50:01.295Z,67.60
2018-08-22T02:52:28.583Z,67.40
2018-08-22T02:54:55.814Z,67.40
2018-08-22T02:57:23.115Z,67.40
2018-08-22T02:59:50.383Z,67.40
2018-08-22T03:02:17.634Z,68.20
2018-08-22T03:04:44.883Z,67.60
2018-08-22T03:07:12.250Z,67.60
2018-08-22T03:09:39.549Z,67.50
2018-08-22T03:12:06.775Z,67.50
2018-08-22T03:14:34.059Z,67.50
2018-08-22T03:17:01.407Z,67.60
2018-08-22T03:19:28.669Z,68.10
2018-08-22T03:21:55.954Z,68.70
2018-08-22T03:24:23.233Z,68.80
2018-08-22T03:26:50.479Z,69.10
2018-08-22T03:29:18.724Z,68.90
2018-08-22T03:31:45.920Z,68.70
2018-08-22T03:34:13.218Z,68.50
2018-08-22T03:36:40.470Z,68.60
2018-08-22T03:39:07.971Z,68.40
2018-08-22T03:41:35.210Z,68.40
2018-08-22T03:44:02.463Z,68.40
2018-08-22T03:46:29.747Z,68.50
2018-08-22T03:48:56.979Z,68.60
2018-08-22T03:51:24.282Z,68.90
2018-08-22T03:53:51.514Z,69.00
2018-08-22T03:56:18.807Z,69.00
2018-08-22T03:58:46.070Z,69.00
2018-08-22T04:01:13.330Z,68.40
2018-08-22T04:03:40.566Z,69.30
2018-08-22T04:06:07.870Z,69.40
2018-08-22T04:08:35.111Z,69.30
2018-08-22T04:11:02.394Z,69.40
2018-08-22T04:13:29.646Z,69.40
2018-08-22T04:15:56.942Z,69.40
2018-08-22T04:18:24.190Z,69.50
2018-08-22T04:20:51.422Z,69.60
2018-08-22T04:23:18.731Z,69.50
2018-08-22T04:25:46.061Z,69.60
2018-08-22T04:28:13.671Z,69.70
2018-08-22T04:30:40.954Z,69.90
2018-08-22T04:33:08.239Z,69.60
2018-08-22T04:35:35.486Z,70.00
2018-08-22T04:38:02.726Z,70.40
2018-08-22T04:40:29.970Z,71.00
2018-08-22T04:42:57.351Z,71.50
2018-08-22T04:45:24.586Z,71.70
2018-08-22T04:47:51.983Z,71.50
2018-08-22T04:50:19.306Z,71.50
2018-08-22T04:52:46.549Z,71.30
2018-08-22T04:55:13.826Z,71.20
2018-08-22T04:57:41.054Z,71.40
2018-08-22T05:00:09.386Z,71.10
2018-08-22T05:02:36.920Z,71.10
2018-08-22T05:05:04.268Z,71.10
2018-08-22T05:07:31.602Z,70.90
2018-08-22T05:09:58.947Z,70.60
2018-08-22T05:12:26.247Z,70.40
2018-08-22T05:14:53.570Z,70.60
2018-08-22T05:17:20.937Z,70.10
2018-08-22T05:19:48.433Z,70.00
2018-08-22T05:22:15.662Z,69.60
2018-08-22T05:24:42.970Z,69.10
2018-08-22T05:27:10.263Z,68.90
2018-08-22T05:29:37.682Z,68.90
2018-08-22T05:32:04.999Z,68.20
2018-08-22T05:34:32.289Z,68.30
2018-08-22T05:36:59.596Z,67.90
2018-08-22T05:39:27.834Z,67.70
2018-08-22T05:41:55.161Z,67.20
2018-08-22T05:44:22.767Z,67.00
2018-08-22T05:46:50.118Z,67.90
2018-08-22T05:49:18.467Z,65.80
2018-08-22T05:51:45.722Z,65.30
2018-08-22T05:54:12.990Z,65.20
2018-08-22T05:56:40.241Z,65.60
2018-08-22T05:59:07.482Z,65.00
2018-08-22T06:01:42.156Z,64.60
2018-08-22T06:04:09.486Z,64.40
2018-08-22T06:06:36.795Z,63.80
2018-08-22T06:09:07.687Z,63.50
2018-08-22T06:11:34.958Z,63.70
2018-08-22T06:14:02.294Z,63.20
2018-08-22T06:16:29.526Z,62.70
2018-08-22T06:18:56.797Z,62.40
2018-08-22T06:21:24.143Z,62.10
2018-08-22T06:23:51.474Z,62.20
2018-08-22T06:26:18.867Z,61.80
2018-08-22T06:28:46.178Z,61.10
2018-08-22T06:31:13.443Z,60.60
2018-08-22T06:33:40.677Z,60.00
2018-08-22T06:36:07.946Z,60.40
2018-08-22T06:38:35.217Z,59.90
2018-08-22T06:41:02.567Z,59.70
2018-08-22T06:43:29.921Z,59.50
2018-08-22T06:45:57.201Z,58.60
2018-08-22T06:48:24.635Z,58.40
2018-08-22T06:50:51.951Z,58.60
2018-08-22T06:53:19.183Z,58.50
2018-08-22T06:55:46.630Z,58.90
2018-08-22T06:58:13.893Z,58.40
2018-08-22T07:00:41.190Z,58.00
2018-08-22T07:03:08.457Z,57.60
2018-08-22T07:05:35.726Z,57.40
2018-08-22T07:08:03.234Z,56.90
2018-08-22T07:10:30.430Z,56.20
2018-08-22T07:12:57.744Z,56.20
2018-08-22T07:15:24.986Z,56.50
2018-08-22T07:17:52.252Z,55.80
2018-08-22T07:20:19.531Z,55.70
2018-08-22T07:22:46.807Z,54.70
2018-08-22T07:25:15.143Z,54.50
2018-08-22T07:27:42.562Z,54.30
2018-08-22T07:30:09.826Z,53.40
2018-08-22T07:32:37.124Z,53.40
2018-08-22T07:35:04.853Z,53.30
2018-08-22T07:37:32.110Z,52.90
2018-08-22T07:39:59.482Z,53.00
2018-08-22T07:42:28.141Z,52.30
2018-08-22T07:44:56.262Z,51.60
2018-08-22T07:47:23.543Z,51.90
2018-08-22T07:49:50.959Z,51.80
2018-08-22T07:52:18.172Z,51.40
2018-08-22T07:54:46.384Z,51.20
2018-08-22T07:57:15.285Z,50.50
2018-08-22T07:59:42.513Z,50.40
2018-08-22T08:02:10.899Z,51.10
2018-08-22T08:04:38.297Z,50.50
2018-08-22T08:07:05.582Z,49.50
2018-08-22T08:09:33.006Z,49.10
2018-08-22T08:12:00.378Z,49.10
2018-08-22T08:14:27.643Z,49.20
2018-08-22T08:16:54.902Z,48.30
2018-08-22T08:19:22.264Z,48.20
2018-08-22T08:21:49.640Z,48.10
2018-08-22T08:24:16.911Z,47.70
2018-08-22T08:26:44.143Z,47.70
2018-08-22T08:29:11.311Z,47.40
2018-08-22T08:31:38.614Z,46.90
2018-08-22T08:34:05.902Z,46.50
2018-08-22T08:36:33.106Z,46.30
2018-08-22T08:39:07.129Z,46.80
2018-08-22T08:41:34.561Z,46.00
2018-08-22T08:44:01.777Z,46.20
2018-08-22T08:46:29.082Z,46.30
2018-08-22T08:48:56.313Z,45.40
2018-08-22T08:51:23.633Z,45.90
2018-08-22T08:53:50.839Z,45.20
2018-08-22T08:56:18.114Z,45.40
2018-08-22T08:58:46.419Z,45.10
2018-08-22T09:01:13.671Z,43.90
2018-08-22T09:03:42.066Z,44.00
2018-08-22T09:06:09.370Z,44.30
2018-08-22T09:08:36.655Z,44.00
2018-08-22T09:11:04.172Z,43.30
2018-08-22T09:13:31.406Z,43.40
2018-08-22T09:15:58.703Z,43.00
2018-08-22T09:18:26.022Z,42.70
2018-08-22T09:20:53.559Z,42.70
2018-08-22T09:23:20.770Z,42.90
2018-08-22T09:25:48.102Z,42.50
2018-08-22T09:28:15.419Z,41.90
2018-08-22T09:30:42.601Z,42.30
2018-08-22T09:33:09.858Z,41.30
2018-08-22T09:35:37.209Z,41.40
2018-08-22T09:38:04.499Z,41.40
2018-08-22T09:40:31.814Z,40.80
2018-08-22T09:42:59.019Z,39.90
2018-08-22T09:45:26.285Z,39.60
2018-08-22T09:47:53.564Z,38.60
2018-08-22T09:50:20.793Z,39.40
2018-08-22T09:52:48.082Z,39.60
2018-08-22T09:55:15.351Z,38.90
2018-08-22T09:57:42.618Z,39.30
2018-08-22T10:00:15.683Z,38.40
2018-08-22T10:02:42.899Z,37.90
2018-08-22T10:05:10.182Z,37.70
2018-08-22T10:07:37.383Z,37.60
2018-08-22T10:10:04.773Z,37.40
2018-08-22T10:12:31.934Z,37.80
2018-08-22T10:14:59.224Z,37.30
2018-08-22T10:17:26.454Z,37.00
2018-08-22T10:19:53.719Z,36.90
2018-08-22T10:22:20.974Z,37.60
2018-08-22T10:24:48.238Z,38.30
2018-08-22T10:27:15.556Z,37.40
2018-08-22T10:29:42.798Z,37.50
2018-08-22T10:32:10.202Z,37.50
2018-08-22T10:34:37.425Z,36.90
2018-08-22T10:37:04.724Z,36.70
2018-08-22T10:39:32.015Z,36.80
2018-08-22T10:41:59.222Z,36.70
2018-08-22T10:44:26.548Z,36.30
2018-08-22T10:46:53.749Z,35.90
2018-08-22T10:49:21.026Z,36.00
2018-08-22T10:51:48.269Z,35.90
2018-08-22T10:54:15.555Z,35.70
2018-08-22T10:56:42.806Z,35.30
2018-08-22T10:59:10.070Z,34.30
2018-08-22T11:01:37.339Z,34.30
2018-08-22T11:04:04.634Z,33.90
2018-08-22T11:06:31.904Z,34.40
2018-08-22T11:08:59.141Z,34.60
2018-08-22T11:11:26.396Z,32.70
2018-08-22T11:13:53.664Z,32.70
2018-08-22T11:16:20.914Z,33.20
2018-08-22T11:18:48.179Z,34.50
2018-08-22T11:21:27.088Z,33.90
2018-08-22T11:24:05.977Z,32.60
2018-08-22T11:26:44.954Z,33.00
2018-08-22T11:29:23.888Z,33.40
2018-08-22T11:32:02.794Z,33.30
2018-08-22T11:34:41.367Z,31.70
2018-08-22T11:37:10.735Z,31.60
2018-08-22T11:39:38.127Z,32.70
2018-08-22T11:42:06.676Z,32.20
2018-08-22T11:44:34.127Z,31.80
2018-08-22T11:47:01.584Z,31.90
2018-08-22T11:49:29.504Z,31.90
2018-08-22T11:51:57.312Z,31.40
2018-08-22T11:54:24.582Z,31.10
2018-08-22T11:56:51.883Z,31.30
2018-08-22T11:59:20.162Z,32.20
2018-08-22T12:01:47.700Z,31.80
2018-08-22T12:04:14.974Z,31.50
2018-08-22T12:06:42.254Z,31.90
2018-08-22T12:09:11.068Z,30.60
2018-08-22T12:11:38.374Z,30.70
2018-08-22T12:14:05.887Z,30.00
2018-08-22T12:16:33.119Z,30.50
2018-08-22T12:19:00.551Z,29.80
2018-08-22T12:21:27.795Z,30.80
2018-08-22T12:23:54.991Z,31.20
2018-08-22T12:26:22.303Z,30.10
2018-08-22T12:28:49.566Z,28.90
2018-08-22T12:31:16.855Z,29.90
2018-08-22T12:33:44.095Z,30.20
2018-08-22T12:36:11.318Z,29.40
2018-08-22T12:38:38.707Z,29.30
2018-08-22T12:41:06.313Z,28.70
2018-08-22T12:43:33.625Z,27.90
2018-08-22T12:46:00.962Z,26.30
2018-08-22T12:48:28.203Z,25.10
2018-08-22T12:50:55.466Z,23.40
2018-08-22T12:53:22.710Z,22.50
2018-08-22T12:55:49.992Z,22.30
2018-08-22T12:58:17.299Z,21.30
2018-08-22T13:00:44.530Z,20.40
2018-08-22T13:03:11.775Z,20.20
2018-08-22T13:05:39.019Z,21.20
2018-08-22T13:08:06.321Z,20.70
2018-08-22T13:10:33.643Z,20.70
2018-08-22T13:13:00.979Z,20.10
2018-08-22T13:15:28.224Z,20.30
2018-08-22T13:17:55.442Z,20.20
2018-08-22T13:20:22.737Z,19.30
2018-08-22T13:22:49.986Z,19.60
2018-08-22T13:25:17.239Z,19.60
2018-08-22T13:27:44.514Z,19.60
2018-08-22T13:30:12.386Z,19.00
2018-08-22T13:32:39.679Z,18.80
2018-08-22T13:35:07.142Z,18.70
2018-08-22T13:37:34.414Z,18.50
2018-08-22T13:40:01.672Z,18.40
2018-08-22T13:42:29.014Z,19.20
2018-08-22T13:44:56.314Z,19.40
2018-08-22T13:47:23.585Z,19.20
2018-08-22T13:49:50.883Z,19.50
2018-08-22T13:52:24.514Z,19.00
2018-08-22T13:54:51.827Z,19.60
2018-08-22T13:57:19.074Z,19.30
2018-08-22T13:59:46.342Z,19.10
2018-08-22T14:02:14.524Z,18.60
2018-08-22T14:04:41.830Z,18.50
2018-08-22T14:07:09.071Z,18.90
2018-08-22T14:09:36.329Z,18.60
2018-08-22T14:12:05.883Z,18.80
2018-08-22T14:14:33.190Z,18.80
2018-08-22T14:17:00.592Z,18.80
2018-08-22T14:19:27.924Z,18.80
2018-08-22T14:21:55.193Z,18.40
2018-08-22T14:24:22.498Z,17.60
2018-08-22T14:26:49.734Z,17.90
2018-08-22T14:29:17.032Z,17.30
2018-08-22T14:31:44.356Z,17.60
2018-08-22T14:34:11.671Z,17.90
2018-08-22T14:36:38.918Z,17.70
2018-08-22T14:39:08.197Z,17.90
2018-08-22T14:41:35.531Z,18.20
2018-08-22T14:44:02.778Z,18.70
2018-08-22T14:46:30.020Z,18.50
2018-08-22T14:48:57.303Z,18.70
2018-08-22T14:51:24.559Z,19.00
2018-08-22T14:53:52.207Z,18.60
2018-08-22T14:56:19.575Z,18.10
2018-08-22T14:58:46.767Z,18.20
2018-08-22T15:01:14.062Z,18.50
2018-08-22T15:03:41.331Z,18.70
2018-08-22T15:06:09.090Z,18.80
2018-08-22T15:08:36.347Z,18.50
2018-08-22T15:11:04.630Z,18.00
2018-08-22T15:13:31.999Z,18.60
2018-08-22T15:15:59.273Z,18.30
2018-08-22T15:18:26.510Z,18.20
2018-08-22T15:20:53.829Z,18.40
2018-08-22T15:23:21.040Z,19.10
2018-08-22T15:25:48.340Z,19.10
2018-08-22T15:28:15.684Z,18.50
2018-08-22T15:30:42.966Z,18.90
2018-08-22T15:33:10.187Z,18.50
2018-08-22T15:35:37.473Z,18.40
2018-08-22T15:38:04.815Z,18.40
2018-08-22T15:40:32.160Z,18.70
2018-08-22T15:42:59.384Z,18.50
2018-08-22T15:45:26.610Z,18.50
2018-08-22T15:47:53.878Z,18.30
2018-08-22T15:50:21.186Z,19.40
2018-08-22T15:52:49.293Z,19.50
2018-08-22T15:55:16.905Z,20.00
2018-08-22T15:58:02.124Z,19.60
2018-08-22T16:00:44.291Z,19.20
2018-08-22T16:03:11.623Z,19.00
2018-08-22T16:05:39.912Z,18.80
2018-08-22T16:08:07.759Z,18.70
2018-08-22T16:10:35.067Z,18.90
2018-08-22T16:13:02.376Z,18.80
2018-08-22T16:15:32.491Z,18.90
2018-08-22T16:18:02.495Z,19.00
2018-08-22T16:20:29.746Z,19.30
2018-08-22T16:22:56.959Z,19.60
2018-08-22T16:25:29.231Z,19.60
2018-08-22T16:27:56.531Z,19.70
2018-08-22T16:30:23.833Z,19.90
2018-08-22T16:32:51.144Z,19.70
2018-08-22T16:35:18.439Z,19.80
2018-08-22T16:37:58.978Z,20.10
2018-08-22T16:40:26.837Z,20.70
2018-08-22T16:42:54.055Z,20.80
2018-08-22T16:45:21.319Z,21.20
2018-08-22T16:47:48.590Z,22.00
2018-08-22T16:50:16.082Z,22.70
2018-08-22T16:52:43.326Z,23.50
2018-08-22T16:55:14.923Z,24.00
2018-08-22T16:57:42.164Z,24.20
2018-08-22T17:00:09.474Z,24.30
2018-08-22T17:02:36.971Z,25.20
2018-08-22T17:05:04.371Z,26.00
2018-08-22T17:07:31.635Z,25.40
2018-08-22T17:09:58.887Z,25.40
2018-08-22T17:12:26.171Z,25.30
2018-08-22T17:14:53.445Z,25.20
2018-08-22T17:17:20.662Z,25.20
2018-08-22T17:19:47.943Z,25.80
2018-08-22T17:22:15.234Z,25.20
2018-08-22T17:24:42.447Z,24.90
2018-08-22T17:27:09.709Z,25.40
2018-08-22T17:29:37.019Z,25.50
2018-08-22T17:32:05.831Z,25.40
2018-08-22T17:34:33.142Z,25.50
2018-08-22T17:37:06.027Z,26.10
2018-08-22T17:39:33.331Z,26.00
2018-08-22T17:42:00.831Z,26.20
2018-08-22T17:44:28.452Z,26.50
2018-08-22T17:46:56.391Z,26.50
2018-08-22T17:49:24.234Z,27.30
2018-08-22T17:51:56.604Z,27.70
2018-08-22T17:54:24.829Z,28.00
2018-08-22T17:57:04.032Z,27.70
2018-08-22T17:59:31.711Z,28.70
2018-08-22T18:01:59.547Z,28.90
2018-08-22T18:04:28.062Z,28.60
2018-08-22T18:06:55.292Z,30.10
2018-08-22T18:09:22.526Z,31.00
2018-08-22T18:11:49.754Z,31.50
2018-08-22T18:14:17.019Z,32.20
2018-08-22T18:16:44.558Z,32.10
2018-08-22T18:19:11.855Z,32.90
2018-08-22T18:21:43.718Z,33.60
2018-08-22T18:24:11.011Z,34.50
2018-08-22T18:26:38.314Z,34.80
2018-08-22T18:29:05.538Z,35.30
2018-08-22T18:31:32.843Z,35.70
2018-08-22T18:34:01.427Z,36.30
2018-08-22T18:36:29.778Z,36.80
2018-08-22T18:39:10.042Z,37.00
2018-08-22T18:41:42.313Z,37.60
2018-08-22T18:44:13.027Z,37.90
2018-08-22T18:46:43.693Z,38.60
2018-08-22T18:49:13.592Z,39.40
2018-08-22T18:51:45.535Z,39.90
2018-08-22T18:54:20.422Z,40.40
2018-08-22T18:59:46.504Z,41.30
2018-08-22T19:02:19.338Z,41.10
2018-08-22T19:04:53.473Z,42.50
2018-08-22T19:07:28.180Z,42.30
2018-08-22T19:10:03.408Z,42.60
2018-08-22T19:12:39.324Z,42.90
2018-08-22T19:15:15.605Z,43.20
2018-08-22T19:17:47.126Z,43.50
2018-08-22T19:20:29.050Z,44.20
2018-08-22T19:22:56.390Z,44.60
2018-08-22T19:25:23.675Z,44.80
2018-08-22T19:27:50.998Z,45.40
2018-08-22T19:30:18.353Z,45.30
2018-08-22T19:32:45.711Z,45.40
2018-08-22T19:35:12.958Z,45.40
2018-08-22T19:37:40.231Z,45.90
2018-08-22T19:40:08.725Z,45.50
2018-08-22T19:42:39.762Z,46.00
2018-08-22T19:45:08.545Z,46.30
2018-08-22T19:47:37.305Z,45.50
2018-08-22T19:50:05.393Z,45.10
2018-08-22T19:52:32.798Z,44.60
2018-08-22T19:55:01.030Z,44.40
2018-08-22T19:57:33.930Z,44.30
2018-08-22T20:00:02.227Z,44.30
2018-08-22T20:02:29.447Z,44.30
2018-08-22T20:04:56.811Z,44.30
2018-08-22T20:07:24.462Z,44.40
2018-08-22T20:09:53.459Z,45.00
2018-08-22T20:12:25.351Z,45.10
2018-08-22T20:14:52.779Z,45.20
2018-08-22T20:17:25.771Z,45.20
2018-08-22T20:19:53.000Z,45.70
2018-08-22T20:22:25.014Z,45.80
2018-08-22T20:24:54.514Z,46.00
2018-08-22T20:27:23.565Z,46.20
2018-08-22T20:29:51.691Z,45.90
2018-08-22T20:32:22.732Z,45.80
2018-08-22T20:34:50.075Z,46.30
2018-08-22T20:37:17.373Z,46.30
2018-08-22T20:39:45.009Z,46.40
2018-08-22T20:42:12.295Z,46.30
2018-08-22T20:44:41.323Z,46.80
2018-08-22T20:47:08.646Z,46.40
2018-08-22T20:49:36.103Z,46.10
2018-08-22T20:52:03.480Z,46.20
2018-08-22T20:54:31.024Z,46.10
2018-08-22T20:57:00.931Z,46.00
2018-08-22T20:59:28.593Z,46.00
2018-08-22T21:02:01.199Z,45.90
2018-08-22T21:04:28.454Z,46.40
2018-08-22T21:06:55.789Z,46.40
2018-08-22T21:09:23.389Z,46.20
2018-08-22T21:11:51.565Z,47.30
2018-08-22T21:14:19.055Z,46.30
2018-08-22T21:17:23.944Z,46.70
2018-08-22T21:19:52.557Z,46.20
2018-08-22T21:22:27.394Z,46.10
2018-08-22T21:24:57.346Z,46.40
2018-08-22T21:27:24.523Z,46.30
2018-08-22T21:29:51.803Z,46.30
2018-08-22T21:32:19.093Z,46.40
2018-08-22T21:34:46.301Z,46.50
2018-08-22T21:37:21.358Z,46.40
2018-08-22T21:39:48.662Z,46.70
2018-08-22T21:42:20.563Z,46.70
2018-08-22T21:44:47.848Z,46.90
2018-08-22T21:47:15.099Z,47.00
2018-08-22T21:49:42.392Z,47.40
2018-08-22T21:52:09.637Z,47.40
2018-08-22T21:54:36.905Z,47.80
2018-08-22T21:57:04.425Z,47.10
2018-08-22T21:59:31.684Z,47.80
2018-08-22T22:02:04.590Z,47.40
2018-08-22T22:04:31.787Z,47.60
2018-08-22T22:06:59.140Z,47.90
2018-08-22T22:09:26.539Z,48.00
2018-08-22T22:11:56.639Z,48.30
2018-08-22T22:14:26.802Z,48.70
2018-08-22T22:16:58.719Z,49.00
2018-08-22T22:19:26.803Z,49.60
2018-08-22T22:21:54.050Z,49.70
2018-08-22T22:24:21.478Z,49.50
2018-08-22T22:26:48.860Z,49.50
2018-08-22T22:29:16.198Z,49.70
2018-08-22T22:31:45.893Z,49.90
2018-08-22T22:34:13.214Z,49.90
2018-08-22T22:36:40.532Z,50.30
2018-08-22T22:39:45.075Z,50.10
2018-08-22T22:42:18.118Z,50.30
2018-08-22T22:44:48.619Z,50.70
2018-08-22T22:47:28.974Z,50.70
2018-08-22T22:49:56.718Z,50.90
2018-08-22T22:52:29.387Z,51.10
2018-08-22T22:54:59.113Z,51.60
2018-08-22T22:57:26.706Z,51.50
2018-08-22T22:59:54.302Z,51.30
2018-08-22T23:02:23.915Z,51.60
2018-08-22T23:04:52.488Z,51.40
2018-08-22T23:07:25.416Z,51.50
2018-08-22T23:09:55.980Z,51.70
2018-08-22T23:12:29.113Z,52.10
2018-08-22T23:14:57.008Z,52.20
2018-08-22T23:17:25.439Z,52.60
2018-08-22T23:20:56.430Z,52.50
2018-08-22T23:23:34.677Z,52.80
2018-08-22T23:26:13.932Z,53.10
2018-08-22T23:28:42.652Z,53.30
2018-08-22T23:31:10.367Z,53.60
2018-08-22T23:33:37.946Z,54.30
2018-08-22T23:36:05.633Z,55.10
2018-08-22T23:38:34.059Z,55.80
2018-08-22T23:41:01.966Z,55.90
2018-08-22T23:43:39.311Z,56.40
2018-08-22T23:46:07.491Z,56.50
2018-08-22T23:48:35.570Z,56.80
2018-08-22T23:51:04.209Z,57.40
2018-08-22T23:53:40.111Z,57.60
2018-08-22T23:56:12.314Z,57.80
2018-08-22T23:58:40.791Z,57.30
